createdAt,value
2023-05-20T00:01:29.128Z,1.77
2023-05-20T00:03:57.563Z,1.92
2023-05-20T00:06:26.200Z,2.00
2023-05-20T00:08:55.594Z,2.10
2023-05-20T00:11:26.205Z,1.98
2023-05-20T00:13:54.446Z,1.70
2023-05-20T00:16:22.845Z,1.90
2023-05-20T00:18:51.264Z,1.73
2023-05-20T00:21:19.606Z,2.05
2023-05-20T00:23:47.835Z,2.10
2023-05-20T00:26:16.178Z,2.20
2023-05-20T00:28:47.771Z,1.98
2023-05-20T00:31:16.140Z,2.28
2023-05-20T00:33:44.423Z,1.90
2023-05-20T00:36:12.801Z,1.88
2023-05-20T00:38:40.981Z,2.10
2023-05-20T00:41:09.353Z,2.00
2023-05-20T00:43:37.616Z,2.00
2023-05-20T00:46:07.510Z,2.03
2023-05-20T00:48:42.405Z,1.92
2023-05-20T00:51:12.433Z,2.10
2023-05-20T00:53:41.029Z,1.73
2023-05-20T00:56:11.116Z,2.08
2023-05-20T00:58:39.906Z,2.00
2023-05-20T01:01:09.969Z,2.17
2023-05-20T01:03:39.134Z,2.40
2023-05-20T01:06:07.694Z,2.17
2023-05-20T01:08:36.151Z,2.10
2023-05-20T01:11:08.192Z,2.28
2023-05-20T01:13:44.345Z,2.50
2023-05-20T01:16:18.921Z,1.85
2023-05-20T01:18:49.554Z,2.25
2023-05-20T01:21:19.661Z,2.00
2023-05-20T01:23:49.306Z,1.90
2023-05-20T01:26:18.833Z,1.90
2023-05-20T01:28:47.736Z,2.05
2023-05-20T01:31:20.006Z,1.80
2023-05-20T01:33:52.304Z,2.13
2023-05-20T01:36:22.412Z,2.15
2023-05-20T01:38:53.905Z,2.58
2023-05-20T01:41:24.441Z,2.30
2023-05-20T01:43:52.890Z,2.10
2023-05-20T01:46:21.350Z,2.15
2023-05-20T01:48:50.909Z,2.10
2023-05-20T01:51:19.366Z,2.30
2023-05-20T01:53:47.594Z,2.65
2023-05-20T01:56:17.282Z,1.98
2023-05-20T01:58:45.787Z,2.17
2023-05-20T02:01:14.843Z,2.30
2023-05-20T02:03:44.963Z,2.28
2023-05-20T02:06:13.374Z,2.30
2023-05-20T02:08:41.622Z,2.60
2023-05-20T02:11:09.984Z,2.70
2023-05-20T02:13:41.504Z,2.30
2023-05-20T02:16:10.044Z,2.67
2023-05-20T02:18:38.478Z,2.05
2023-05-20T02:21:07.264Z,2.47
2023-05-20T02:23:35.957Z,2.80
2023-05-20T02:26:04.447Z,2.80
2023-05-20T02:28:32.687Z,2.42
2023-05-20T02:31:02.394Z,3.00
2023-05-20T02:33:33.534Z,2.80
2023-05-20T02:36:02.386Z,2.72
2023-05-20T02:38:31.756Z,2.38
2023-05-20T02:41:01.300Z,2.53
2023-05-20T02:43:30.778Z,2.88
2023-05-20T02:46:03.597Z,2.60
2023-05-20T02:48:32.032Z,2.53
2023-05-20T02:51:00.848Z,2.63
2023-05-20T02:53:29.202Z,2.63
2023-05-20T02:55:59.616Z,2.28
2023-05-20T02:58:29.292Z,2.90
2023-05-20T03:00:57.738Z,2.90
2023-05-20T03:03:28.107Z,2.95
2023-05-20T03:05:56.886Z,2.58
2023-05-20T03:08:25.682Z,2.97
2023-05-20T03:10:54.123Z,2.80
2023-05-20T03:13:22.766Z,2.97
2023-05-20T03:15:51.327Z,2.58
2023-05-20T03:18:19.563Z,3.05
2023-05-20T03:20:49.413Z,2.50
2023-05-20T03:23:17.787Z,2.78
2023-05-20T03:25:46.234Z,3.50
2023-05-20T03:28:14.493Z,3.10
2023-05-20T03:30:42.818Z,2.90
2023-05-20T03:33:12.281Z,2.92
2023-05-20T03:35:40.852Z,2.70
2023-05-20T03:38:10.379Z,3.00
2023-05-20T03:40:40.167Z,3.15
2023-05-20T03:43:08.449Z,3.10
2023-05-20T03:45:37.048Z,3.10
2023-05-20T03:48:08.059Z,3.00
2023-05-20T03:50:37.729Z,3.20
2023-05-20T03:53:06.433Z,3.28
2023-05-20T03:55:41.509Z,3.03
2023-05-20T03:58:10.771Z,3.25
2023-05-20T04:00:39.690Z,3.20
2023-05-20T04:03:08.654Z,3.25
2023-05-20T04:05:37.595Z,3.35
2023-05-20T04:08:13.462Z,3.40
2023-05-20T04:10:43.868Z,3.65
2023-05-20T04:13:13.272Z,3.47
2023-05-20T04:15:42.798Z,3.05
2023-05-20T04:18:13.083Z,3.47
2023-05-20T04:20:42.549Z,3.50
2023-05-20T04:23:11.707Z,3.35
2023-05-20T04:25:41.212Z,3.33
2023-05-20T04:28:14.010Z,3.50
2023-05-20T04:30:42.612Z,3.50
2023-05-20T04:33:11.599Z,3.35
2023-05-20T04:35:41.560Z,3.90
2023-05-20T04:38:10.869Z,3.50
2023-05-20T04:40:40.777Z,4.10
2023-05-20T04:43:11.064Z,3.72
2023-05-20T04:45:40.297Z,3.80
2023-05-20T04:48:09.473Z,4.00
2023-05-20T04:50:39.128Z,3.60
2023-05-20T04:53:08.965Z,3.72
2023-05-20T04:55:38.998Z,3.67
2023-05-20T04:58:08.394Z,3.55
2023-05-20T05:00:38.758Z,4.00
2023-05-20T05:03:08.442Z,3.80
2023-05-20T05:05:38.786Z,3.70
2023-05-20T05:08:07.958Z,3.80
2023-05-20T05:10:40.966Z,3.83
2023-05-20T05:13:11.113Z,4.03
2023-05-20T05:15:40.757Z,3.85
2023-05-20T05:18:09.744Z,4.10
2023-05-20T05:20:38.777Z,4.30
2023-05-20T05:23:07.447Z,4.18
2023-05-20T05:25:36.225Z,4.45
2023-05-20T05:28:04.911Z,4.28
2023-05-20T05:30:33.249Z,4.05
2023-05-20T05:33:05.282Z,4.40
2023-05-20T05:35:34.425Z,3.97
2023-05-20T05:38:03.104Z,4.40
2023-05-20T05:40:31.596Z,4.55
2023-05-20T05:43:00.357Z,4.70
2023-05-20T05:45:28.719Z,4.60
2023-05-20T05:47:57.639Z,4.95
2023-05-20T05:50:28.258Z,4.57
2023-05-20T05:52:56.626Z,4.70
2023-05-20T05:55:25.201Z,4.65
2023-05-20T05:57:56.167Z,4.70
2023-05-20T06:00:25.081Z,4.95
2023-05-20T06:02:53.501Z,5.15
2023-05-20T06:05:34.426Z,4.60
2023-05-20T06:08:03.177Z,5.22
2023-05-20T06:10:34.457Z,5.15
2023-05-20T06:13:03.119Z,5.00
2023-05-20T06:15:32.881Z,4.75
2023-05-20T06:18:01.822Z,5.90
2023-05-20T06:20:30.263Z,5.28
2023-05-20T06:23:00.271Z,5.70
2023-05-20T06:25:37.346Z,5.30
2023-05-20T06:28:06.395Z,5.60
2023-05-20T06:30:34.804Z,5.25
2023-05-20T06:33:03.566Z,5.20
2023-05-20T06:35:34.816Z,5.40
2023-05-20T06:38:05.908Z,5.90
2023-05-20T06:40:35.518Z,5.88
2023-05-20T06:43:03.878Z,5.90
2023-05-20T06:45:52.029Z,5.63
2023-05-20T06:48:25.399Z,5.70
2023-05-20T06:50:53.995Z,6.47
2023-05-20T06:53:23.772Z,6.03
2023-05-20T06:55:52.668Z,6.13
2023-05-20T06:58:22.362Z,6.05
2023-05-20T07:00:50.685Z,6.20
2023-05-20T07:03:19.084Z,6.13
2023-05-20T07:05:47.664Z,7.32
2023-05-20T07:08:16.058Z,6.90
2023-05-20T07:10:46.503Z,6.72
2023-05-20T07:13:18.329Z,7.32
2023-05-20T07:15:48.508Z,6.85
2023-05-20T07:18:17.976Z,7.47
2023-05-20T07:20:52.833Z,7.07
2023-05-20T07:23:40.955Z,7.25
2023-05-20T07:26:10.767Z,6.70
2023-05-20T07:28:39.642Z,6.50
2023-05-20T07:31:08.060Z,6.95
2023-05-20T07:33:42.982Z,6.97
2023-05-20T07:36:11.634Z,6.90
2023-05-20T07:38:49.726Z,7.32
2023-05-20T07:41:27.280Z,7.20
2023-05-20T07:43:56.025Z,7.20
2023-05-20T07:46:24.488Z,7.35
2023-05-20T07:48:53.153Z,7.20
2023-05-20T07:51:21.815Z,7.13
2023-05-20T07:53:50.674Z,6.88
2023-05-20T07:56:19.694Z,7.60
2023-05-20T07:58:55.501Z,7.53
2023-05-20T08:01:26.040Z,7.35
2023-05-20T08:03:55.593Z,7.15
2023-05-20T08:06:28.760Z,6.82
2023-05-20T08:08:58.857Z,6.93
2023-05-20T08:11:32.209Z,6.93
2023-05-20T08:14:03.066Z,6.50
2023-05-20T08:16:38.211Z,7.10
2023-05-20T08:19:06.661Z,6.20
2023-05-20T08:21:35.243Z,7.10
2023-05-20T08:24:05.360Z,6.60
2023-05-20T08:26:34.658Z,7.13
2023-05-20T08:29:04.343Z,7.35
2023-05-20T08:31:32.686Z,7.00
2023-05-20T08:34:01.562Z,6.88
2023-05-20T08:36:29.831Z,7.07
2023-05-20T08:38:58.229Z,6.95
2023-05-20T08:41:27.088Z,6.53
2023-05-20T08:43:56.996Z,7.93
2023-05-20T08:46:33.293Z,7.72
2023-05-20T08:49:03.192Z,7.03
2023-05-20T08:51:34.339Z,7.95
2023-05-20T08:54:05.664Z,7.45
2023-05-20T08:56:39.138Z,7.78
2023-05-20T08:59:12.274Z,7.72
2023-05-20T09:01:45.931Z,7.25
2023-05-20T09:04:19.711Z,6.97
2023-05-20T09:06:52.452Z,7.18
2023-05-20T09:09:22.686Z,6.80
2023-05-20T09:11:53.695Z,6.78
2023-05-20T09:14:23.625Z,7.18
2023-05-20T09:16:53.299Z,7.20
2023-05-20T09:19:24.467Z,6.90
2023-05-20T09:21:58.665Z,7.30
2023-05-20T09:24:29.763Z,7.70
2023-05-20T09:27:01.215Z,7.18
2023-05-20T09:29:30.821Z,6.97
2023-05-20T09:32:06.786Z,6.93
2023-05-20T09:34:36.711Z,7.07
2023-05-20T09:37:07.982Z,6.32
2023-05-20T09:39:51.276Z,6.88
2023-05-20T09:42:26.813Z,6.65
2023-05-20T09:44:56.322Z,6.25
2023-05-20T09:47:27.381Z,6.55
2023-05-20T09:49:56.579Z,6.60
2023-05-20T09:52:25.586Z,6.50
2023-05-20T09:54:57.354Z,6.60
2023-05-20T09:57:26.414Z,6.82
2023-05-20T09:59:55.151Z,6.80
2023-05-20T10:02:23.974Z,6.00
2023-05-20T10:04:56.827Z,5.78
2023-05-20T10:07:52.858Z,6.10
2023-05-20T10:10:35.044Z,5.88
2023-05-20T10:13:14.425Z,5.80
2023-05-20T10:15:51.172Z,5.97
2023-05-20T10:18:41.153Z,6.07
2023-05-20T10:21:18.527Z,6.28
2023-05-20T10:23:47.265Z,5.75
2023-05-20T10:26:15.586Z,6.00
2023-05-20T10:28:44.862Z,6.28
2023-05-20T10:31:18.120Z,5.88
2023-05-20T10:33:47.637Z,5.53
2023-05-20T10:36:27.941Z,6.40
2023-05-20T10:38:58.275Z,6.07
2023-05-20T10:41:28.743Z,5.95
2023-05-20T10:44:05.339Z,6.30
2023-05-20T10:46:46.283Z,5.72
2023-05-20T10:49:26.898Z,5.90
2023-05-20T10:51:57.381Z,6.15
2023-05-20T10:54:25.948Z,5.55
2023-05-20T10:56:54.882Z,6.13
2023-05-20T10:59:23.529Z,6.28
2023-05-20T11:01:53.641Z,5.82
2023-05-20T11:04:22.427Z,5.95
2023-05-20T11:06:55.807Z,6.00
2023-05-20T11:09:25.849Z,6.35
2023-05-20T11:11:55.830Z,5.82
2023-05-20T11:14:24.240Z,6.60
2023-05-20T11:16:54.143Z,6.28
2023-05-20T11:19:22.831Z,7.40
2023-05-20T11:21:51.434Z,7.57
2023-05-20T11:24:27.532Z,6.97
2023-05-20T11:26:57.401Z,7.72
2023-05-20T11:29:28.988Z,7.53
2023-05-20T11:31:57.411Z,7.30
2023-05-20T11:34:27.737Z,7.80
2023-05-20T11:37:00.748Z,6.88
2023-05-20T11:39:32.497Z,7.35
2023-05-20T11:42:01.039Z,8.20
2023-05-20T11:44:29.307Z,7.30
2023-05-20T11:47:01.692Z,7.05
2023-05-20T11:49:30.877Z,7.60
2023-05-20T11:51:59.489Z,8.65
2023-05-20T11:54:27.775Z,7.65
2023-05-20T11:56:57.477Z,9.07
2023-05-20T11:59:26.203Z,7.78
2023-05-20T12:01:54.451Z,8.20
2023-05-20T12:04:23.162Z,7.95
2023-05-20T12:06:53.063Z,7.15
2023-05-20T12:09:22.428Z,7.90
2023-05-20T12:11:50.996Z,7.43
2023-05-20T12:14:20.614Z,8.02
2023-05-20T12:16:48.965Z,8.40
2023-05-20T12:19:17.398Z,7.80
2023-05-20T12:21:47.213Z,8.07
2023-05-20T12:24:15.589Z,7.90
2023-05-20T12:26:44.102Z,7.65
2023-05-20T12:29:12.785Z,8.30
2023-05-20T12:31:42.781Z,7.82
2023-05-20T12:34:11.189Z,7.60
2023-05-20T12:36:39.434Z,7.53
2023-05-20T12:39:09.331Z,8.02
2023-05-20T12:41:37.559Z,7.30
2023-05-20T12:44:06.478Z,7.40
2023-05-20T12:46:34.854Z,6.95
2023-05-20T12:49:04.746Z,7.00
2023-05-20T12:51:32.949Z,6.55
2023-05-20T12:54:01.306Z,6.80
2023-05-20T12:56:30.444Z,7.07
2023-05-20T12:58:59.026Z,7.15
2023-05-20T13:01:27.440Z,7.38
2023-05-20T13:03:55.831Z,6.85
2023-05-20T13:06:26.171Z,6.60
2023-05-20T13:08:54.468Z,6.47
2023-05-20T13:11:22.799Z,6.88
2023-05-20T13:13:51.148Z,6.90
2023-05-20T13:16:19.709Z,7.05
2023-05-20T13:18:48.232Z,6.68
2023-05-20T13:21:16.576Z,6.78
2023-05-20T13:23:46.244Z,6.60
2023-05-20T13:26:14.685Z,6.70
2023-05-20T13:28:42.998Z,6.30
2023-05-20T13:31:11.342Z,6.47
2023-05-20T13:33:39.696Z,6.63
2023-05-20T13:36:08.401Z,6.32
2023-05-20T13:38:37.611Z,6.30
2023-05-20T13:41:07.348Z,6.68
2023-05-20T13:43:36.081Z,7.43
2023-05-20T13:46:04.426Z,6.57
2023-05-20T13:48:33.060Z,7.03
2023-05-20T13:51:01.778Z,6.93
2023-05-20T13:53:30.414Z,6.75
2023-05-20T13:55:59.241Z,6.32
2023-05-20T13:58:28.977Z,6.50
2023-05-20T14:00:57.360Z,6.72
2023-05-20T14:03:25.852Z,6.50
2023-05-20T14:05:54.482Z,6.50
2023-05-20T14:08:23.036Z,6.25
2023-05-20T14:10:54.600Z,6.72
2023-05-20T14:13:24.417Z,6.95
2023-05-20T14:15:54.764Z,6.82
2023-05-20T14:18:23.232Z,6.60
2023-05-20T14:20:51.483Z,7.00
2023-05-20T14:23:19.812Z,7.07
2023-05-20T14:25:48.029Z,6.85
2023-05-20T14:28:16.392Z,6.72
2023-05-20T14:30:44.566Z,7.05
2023-05-20T14:33:14.615Z,6.57
2023-05-20T14:35:42.902Z,6.97
2023-05-20T14:38:11.377Z,6.40
2023-05-20T14:40:39.806Z,6.53
2023-05-20T14:43:08.160Z,6.80
2023-05-20T14:45:36.466Z,6.47
2023-05-20T14:48:05.286Z,6.55
2023-05-20T14:50:34.923Z,6.70
2023-05-20T14:53:03.442Z,7.15
2023-05-20T14:55:31.632Z,6.90
2023-05-20T14:58:00.051Z,7.63
2023-05-20T15:00:28.313Z,7.13
2023-05-20T15:02:56.837Z,7.50
2023-05-20T15:05:25.076Z,7.10
2023-05-20T15:07:55.024Z,7.07
2023-05-20T15:10:23.358Z,6.65
2023-05-20T15:12:53.311Z,7.55
2023-05-20T15:15:22.080Z,7.20
2023-05-20T15:17:50.529Z,7.55
2023-05-20T15:20:18.855Z,7.53
2023-05-20T15:22:48.096Z,7.30
2023-05-20T15:25:17.968Z,7.35
2023-05-20T15:27:46.309Z,7.03
2023-05-20T15:30:15.526Z,7.95
2023-05-20T15:32:44.183Z,6.60
2023-05-20T15:35:12.457Z,6.57
2023-05-20T15:37:41.024Z,7.38
2023-05-20T15:40:10.346Z,7.80
2023-05-20T15:42:40.031Z,7.25
2023-05-20T15:45:09.698Z,7.25
2023-05-20T15:47:40.582Z,7.38
2023-05-20T15:50:11.139Z,7.43
2023-05-20T15:52:39.616Z,7.90
2023-05-20T15:55:09.113Z,8.65
2023-05-20T15:57:38.759Z,6.97
2023-05-20T16:00:10.324Z,8.02
2023-05-20T16:02:40.165Z,7.80
2023-05-20T16:05:09.148Z,7.53
2023-05-20T16:07:37.595Z,7.60
2023-05-20T16:10:06.640Z,6.72
2023-05-20T16:12:35.002Z,7.53
2023-05-20T16:15:04.776Z,7.70
2023-05-20T16:17:33.217Z,7.90
2023-05-20T16:20:01.546Z,8.35
2023-05-20T16:22:30.108Z,9.00
2023-05-20T16:24:58.253Z,10.13
2023-05-20T16:27:26.776Z,8.70
2023-05-20T16:29:54.963Z,8.63
2023-05-20T16:32:24.820Z,7.75
2023-05-20T16:34:54.516Z,8.48
2023-05-20T16:37:22.864Z,8.65
2023-05-20T16:39:51.242Z,8.50
2023-05-20T16:42:19.639Z,8.32
2023-05-20T16:44:49.727Z,8.27
2023-05-20T16:47:18.381Z,8.85
2023-05-20T16:49:47.869Z,8.55
2023-05-20T16:52:16.460Z,9.00
2023-05-20T16:54:44.832Z,9.90
2023-05-20T16:57:15.843Z,10.10
2023-05-20T16:59:44.041Z,9.73
2023-05-20T17:02:12.325Z,9.05
2023-05-20T17:04:40.654Z,9.18
2023-05-20T17:07:11.274Z,9.00
2023-05-20T17:09:39.546Z,8.88
2023-05-20T17:12:08.580Z,9.52
2023-05-20T17:14:36.914Z,9.80
2023-05-20T17:17:06.782Z,9.60
2023-05-20T17:19:35.246Z,9.45
2023-05-20T17:22:03.682Z,9.85
2023-05-20T17:24:34.948Z,9.02
2023-05-20T17:27:03.963Z,10.00
2023-05-20T17:29:32.154Z,9.32
2023-05-20T17:32:00.552Z,9.20
2023-05-20T17:34:29.628Z,9.95
2023-05-20T17:36:58.120Z,9.05
2023-05-20T17:39:26.364Z,10.25
2023-05-20T17:41:56.529Z,10.45
2023-05-20T17:44:24.841Z,9.90
2023-05-20T17:46:54.519Z,9.98
2023-05-20T17:49:23.134Z,9.13
2023-05-20T17:51:51.415Z,9.52
2023-05-20T17:54:19.622Z,9.73
2023-05-20T17:56:50.823Z,9.32
2023-05-20T17:59:21.716Z,9.95
2023-05-20T18:01:50.184Z,9.50
2023-05-20T18:04:18.709Z,10.18
2023-05-20T18:06:47.091Z,10.23
2023-05-20T18:09:15.457Z,10.13
2023-05-20T18:11:43.772Z,10.05
2023-05-20T18:14:12.187Z,9.95
2023-05-20T18:16:41.934Z,10.70
2023-05-20T18:19:10.185Z,10.23
2023-05-20T18:21:38.510Z,10.38
2023-05-20T18:24:07.158Z,10.65
2023-05-20T18:26:35.604Z,11.05
2023-05-20T18:29:04.249Z,10.95
2023-05-20T18:31:32.731Z,11.57
2023-05-20T18:34:02.964Z,11.20
2023-05-20T18:36:31.460Z,11.25
2023-05-20T18:38:59.637Z,11.35
2023-05-20T18:41:39.549Z,11.35
2023-05-20T18:44:14.804Z,11.25
2023-05-20T18:46:43.163Z,11.63
2023-05-20T18:49:12.851Z,11.85
2023-05-20T18:51:41.904Z,11.43
2023-05-20T18:54:10.280Z,11.68
2023-05-20T18:56:38.542Z,11.55
2023-05-20T18:59:06.930Z,11.90
2023-05-20T19:01:36.490Z,11.50
2023-05-20T19:04:05.105Z,11.88
2023-05-20T19:06:35.220Z,12.60
2023-05-20T19:09:03.694Z,11.88
2023-05-20T19:11:32.187Z,12.43
2023-05-20T19:14:00.670Z,12.20
2023-05-20T19:16:29.070Z,12.82
2023-05-20T19:18:57.418Z,12.52
2023-05-20T19:21:25.923Z,11.75
2023-05-20T19:23:56.158Z,12.32
2023-05-20T19:26:24.680Z,13.05
2023-05-20T19:28:53.006Z,13.00
2023-05-20T19:31:22.032Z,13.32
2023-05-20T19:33:50.609Z,12.77
2023-05-20T19:36:19.178Z,13.18
2023-05-20T19:38:47.833Z,17.73
2023-05-20T19:41:17.369Z,15.07
2023-05-20T19:43:45.669Z,16.88
2023-05-20T19:46:14.018Z,15.18
2023-05-20T19:48:42.375Z,13.52
2023-05-20T19:51:11.408Z,13.40
2023-05-20T19:53:39.801Z,13.23
2023-05-20T19:56:08.770Z,13.30
2023-05-20T19:58:38.447Z,13.07
2023-05-20T20:01:06.909Z,12.20
2023-05-20T20:03:35.234Z,12.63
2023-05-20T20:06:03.911Z,12.05
2023-05-20T20:08:33.156Z,11.95
2023-05-20T20:11:01.885Z,13.00
2023-05-20T20:13:30.496Z,13.13
2023-05-20T20:16:00.498Z,14.00
2023-05-20T20:18:28.962Z,13.38
2023-05-20T20:20:59.588Z,13.00
2023-05-20T20:23:28.657Z,12.98
2023-05-20T20:25:57.498Z,13.10
2023-05-20T20:28:26.180Z,13.77
2023-05-20T20:30:55.724Z,13.88
2023-05-20T20:33:25.864Z,13.52
2023-05-20T20:35:55.705Z,13.93
2023-05-20T20:38:24.160Z,13.82
2023-05-20T20:40:54.816Z,13.23
2023-05-20T20:43:23.271Z,12.50
2023-05-20T20:45:53.284Z,13.63
2023-05-20T20:48:27.236Z,13.05
2023-05-20T20:50:58.980Z,13.20
2023-05-20T20:53:27.754Z,13.05
2023-05-20T20:55:56.824Z,13.25
2023-05-20T20:58:27.236Z,14.02
2023-05-20T21:00:55.748Z,12.82
2023-05-20T21:03:26.339Z,12.27
2023-05-20T21:05:54.715Z,13.27
2023-05-20T21:08:27.614Z,13.88
2023-05-20T21:10:59.018Z,13.07
2023-05-20T21:13:28.428Z,12.30
2023-05-20T21:15:56.782Z,13.10
2023-05-20T21:18:25.514Z,12.93
2023-05-20T21:20:55.674Z,13.20
2023-05-20T21:23:25.813Z,12.45
2023-05-20T21:25:54.233Z,12.88
2023-05-20T21:28:23.329Z,12.73
2023-05-20T21:30:51.676Z,12.60
2023-05-20T21:33:20.447Z,11.98
2023-05-20T21:35:48.761Z,12.57
2023-05-20T21:38:17.022Z,11.68
2023-05-20T21:40:47.316Z,12.50
2023-05-20T21:43:15.694Z,12.10
2023-05-20T21:45:45.650Z,12.07
2023-05-20T21:48:14.113Z,12.90
2023-05-20T21:50:42.626Z,11.38
2023-05-20T21:53:11.437Z,12.73
2023-05-20T21:55:41.012Z,11.85
2023-05-20T21:58:11.564Z,12.02
2023-05-20T22:00:40.950Z,12.18
2023-05-20T22:03:09.302Z,11.63
2023-05-20T22:05:38.914Z,13.00
2023-05-20T22:08:07.889Z,12.50
2023-05-20T22:10:36.457Z,12.13
2023-05-20T22:13:05.489Z,11.93
2023-05-20T22:15:35.376Z,12.52
2023-05-20T22:18:07.661Z,12.45
2023-05-20T22:20:38.510Z,12.35
2023-05-20T22:23:06.711Z,12.30
2023-05-20T22:25:36.057Z,12.40
2023-05-20T22:28:05.297Z,11.85
2023-05-20T22:30:35.060Z,11.98
2023-05-20T22:33:03.836Z,12.00
2023-05-20T22:35:32.403Z,12.65
2023-05-20T22:38:01.182Z,13.80
2023-05-20T22:40:33.324Z,14.90
2023-05-20T22:43:01.579Z,14.20
2023-05-20T22:45:29.934Z,17.42
2023-05-20T22:47:59.608Z,20.40
2023-05-20T22:50:27.948Z,18.10
2023-05-20T22:52:56.258Z,21.00
2023-05-20T22:55:24.882Z,19.63
2023-05-20T22:57:53.203Z,14.27
2023-05-20T23:00:21.508Z,12.95
2023-05-20T23:02:52.191Z,12.68
2023-05-20T23:05:22.004Z,13.25
2023-05-20T23:07:52.524Z,14.82
2023-05-20T23:10:20.897Z,13.77
2023-05-20T23:12:49.114Z,16.35
2023-05-20T23:15:17.629Z,15.45
2023-05-20T23:17:45.985Z,13.27
2023-05-20T23:20:18.827Z,15.88
2023-05-20T23:22:48.433Z,13.40
2023-05-20T23:25:16.949Z,12.40
2023-05-20T23:27:45.475Z,12.93
2023-05-20T23:30:13.935Z,11.90
2023-05-20T23:32:42.484Z,12.27
2023-05-20T23:35:12.016Z,12.75
2023-05-20T23:37:40.999Z,12.68
2023-05-20T23:40:11.612Z,11.85
2023-05-20T23:42:40.188Z,11.93
2023-05-20T23:45:09.331Z,11.23
2023-05-20T23:47:37.812Z,12.50
2023-05-20T23:50:06.808Z,12.82
2023-05-20T23:52:35.120Z,13.70
2023-05-20T23:55:03.359Z,14.95
2023-05-20T23:57:32.961Z,13.02
